Terminal Aerodrome Forecast
Issued by NWS

Home | Current Version | Previous Version | Text Only | Print | Product List | Glossary On
Versions: 1 2 3 4 5 6 7 8 9 10 11 12 13
000
FTUS41 KBTV 210500
TAFSLK
TAF
KSLK 210531Z 2106/2206 VRB03KT 6SM -SHRA BR SCT015 BKN045
      TEMPO 2106/2108 3SM SHRA BR SCT020 BKN028
     FM210800 VRB03KT P6SM -SHRA SCT012 OVC025
      TEMPO 2109/2112 4SM -SHRA BR BKN007
     FM211200 12004KT P6SM SCT007 OVC015=

USA.gov is the U.S. government's official web portal to all federal, state and local government web resources and services.